Time;durP1;ratioP1;P1;durP2;ratioP2;P2;SDS_P1;SDS_P2;PMS_P1;PMS_P2;Temp;Humidity;BMP_temperature;BMP_pressure;BME280_temperature;BME280_humidity;BME280_pressure;Samples;Min_cycle;Max_cycle;Signal;HPM_P1;HPM_P2
2022/08/22 00:01:03;;;;;;;3.75;1.10;;;22.00;79.10;;;;;;5137746;27;45601;-73
2022/08/22 00:03:45;;;;;;;5.13;1.45;;;22.00;80.00;;;;;;5139921;27;45538;-75
2022/08/22 00:06:20;;;;;;;3.67;1.48;;;22.00;79.60;;;;;;5146474;27;45353;-74
2022/08/22 00:08:59;;;;;;;5.78;1.40;;;21.90;79.90;;;;;;5141420;27;47317;-74
2022/08/22 00:11:37;;;;;;;6.68;1.50;;;21.90;79.90;;;;;;5131576;27;45396;-74
2022/08/22 00:14:14;;;;;;;5.68;1.58;;;21.90;79.90;;;;;;5146447;27;45449;-75
2022/08/22 00:16:47;;;;;;;5.78;1.50;;;21.90;79.90;;;;;;5152387;27;45351;-74
2022/08/22 00:19:23;;;;;;;5.95;1.38;;;21.90;79.90;;;;;;5141508;27;47969;-74
2022/08/22 00:21:57;;;;;;;8.48;1.35;;;21.90;79.90;;;;;;5162484;27;45286;-74
2022/08/22 00:24:29;;;;;;;5.68;1.55;;;21.90;79.90;;;;;;5158382;27;45350;-74
2022/08/22 00:27:00;;;;;;;7.68;1.42;;;21.80;79.80;;;;;;5136403;27;45515;-74
2022/08/22 00:29:32;;;;;;;3.72;1.40;;;21.80;79.80;;;;;;5148548;27;45496;-74
2022/08/22 00:32:07;;;;;;;6.75;1.77;;;21.80;80.70;;;;;;5155495;27;45341;-74
2022/08/22 00:34:39;;;;;;;6.70;1.50;;;21.70;81.70;;;;;;5149670;27;45354;-74
2022/08/22 00:37:12;;;;;;;5.88;1.40;;;21.80;81.20;;;;;;5143251;27;45401;-75
2022/08/22 00:39:44;;;;;;;7.40;1.70;;;21.70;79.70;;;;;;5153682;27;48448;-74
2022/08/22 00:42:46;;;;;;;5.53;2.08;;;21.60;81.10;;;;;;5137739;27;45366;-74
2022/08/22 00:45:35;;;;;;;4.05;1.20;;;21.50;81.00;;;;;;5156242;27;45290;-74
2022/08/22 00:48:23;;;;;;;7.75;2.00;;;21.50;81.80;;;;;;5103927;27;45417;-75
2022/08/22 00:51:09;;;;;;;4.28;1.63;;;21.50;81.90;;;;;;5149275;27;45382;-74
2022/08/22 00:53:53;;;;;;;3.03;1.35;;;21.40;81.50;;;;;;5156652;27;45425;-73
2022/08/22 00:56:49;;;;;;;5.38;1.40;;;21.20;82.40;;;;;;5154397;27;45350;-74
2022/08/22 00:59:48;;;;;;;6.38;1.50;;;21.30;83.00;;;;;;5159560;27;45517;-74
2022/08/22 01:02:31;;;;;;;2.30;0.98;;;21.30;83.90;;;;;;5147127;27;47523;-74
2022/08/22 01:05:18;;;;;;;9.20;1.83;;;21.30;83.60;;;;;;5137417;27;45318;-74
2022/08/22 01:08:08;;;;;;;5.15;1.48;;;21.40;83.20;;;;;;5150643;27;45333;-74
2022/08/22 01:10:55;;;;;;;5.03;1.20;;;21.40;83.10;;;;;;5140634;27;45392;-73
2022/08/22 01:13:37;;;;;;;4.13;1.42;;;21.50;83.10;;;;;;5148242;27;46820;-74
2022/08/22 01:16:14;;;;;;;5.40;1.50;;;21.50;84.00;;;;;;5143531;27;45204;-74
2022/08/22 01:19:06;;;;;;;5.65;1.75;;;21.50;82.50;;;;;;5156260;27;45399;-74
2022/08/22 01:22:05;;;;;;;3.60;1.48;;;21.50;83.10;;;;;;5138306;27;45395;-74
2022/08/22 01:25:22;;;;;;;6.80;1.77;;;21.50;82.90;;;;;;5141722;27;46288;-74
2022/08/22 01:28:17;;;;;;;2.45;1.33;;;21.50;83.30;;;;;;5147208;27;45297;-74
2022/08/22 01:31:32;;;;;;;4.20;1.42;;;21.40;83.20;;;;;;5155235;27;45424;-74
2022/08/22 01:34:47;;;;;;;4.25;1.70;;;21.40;83.20;;;;;;5137434;27;45690;-74
2022/08/22 01:37:52;;;;;;;2.30;1.25;;;21.40;83.80;;;;;;5072740;28;47483;-74
2022/08/22 01:40:55;;;;;;;4.35;1.25;;;21.40;83.70;;;;;;5112351;27;45953;-74
2022/08/22 01:43:38;;;;;;;5.57;1.40;;;21.40;83.60;;;;;;5143077;27;45521;-75
2022/08/22 01:46:21;;;;;;;5.13;1.67;;;21.40;83.80;;;;;;5156740;27;45270;-74
2022/08/22 01:48:55;;;;;;;3.33;1.38;;;21.40;84.30;;;;;;5151924;27;46315;-74
2022/08/22 01:51:28;;;;;;;6.28;1.50;;;21.40;85.20;;;;;;5143244;27;45573;-74
2022/08/22 01:54:04;;;;;;;6.57;1.50;;;21.30;84.70;;;;;;5137882;27;45283;-75
2022/08/22 01:56:35;;;;;;;3.45;1.20;;;21.30;85.20;;;;;;5133276;27;45517;-74
2022/08/22 01:59:06;;;;;;;4.13;1.65;;;21.30;84.50;;;;;;5157494;27;48530;-73
2022/08/22 02:01:47;;;;;;;4.85;1.30;;;21.20;85.00;;;;;;5145249;27;45473;-74
2022/08/22 02:04:27;;;;;;;4.40;1.90;;;21.10;85.70;;;;;;5147255;27;45498;-74
2022/08/22 02:07:04;;;;;;;4.30;1.67;;;21.00;85.90;;;;;;5144312;27;45422;-74
2022/08/22 02:09:38;;;;;;;4.13;1.30;;;21.10;86.20;;;;;;5135757;27;46492;-74
2022/08/22 02:12:25;;;;;;;2.55;1.40;;;21.10;86.10;;;;;;5151339;27;45356;-75
2022/08/22 02:15:01;;;;;;;3.65;1.20;;;21.40;85.50;;;;;;5156728;27;45499;-74
2022/08/22 02:17:32;;;;;;;2.05;1.13;;;21.60;84.40;;;;;;5145640;27;45420;-74
2022/08/22 02:20:06;;;;;;;3.95;1.40;;;21.60;84.40;;;;;;5162764;27;46494;-74
2022/08/22 02:22:38;;;;;;;4.63;1.60;;;21.60;83.70;;;;;;5144152;27;45315;-74
2022/08/22 02:25:12;;;;;;;3.00;1.38;;;21.60;83.80;;;;;;5157383;27;45390;-74
2022/08/22 02:27:49;;;;;;;3.97;1.40;;;21.60;83.80;;;;;;5151327;27;45623;-74
2022/08/22 02:30:18;;;;;;;3.53;1.23;;;21.50;83.80;;;;;;5134172;27;48783;-74
2022/08/22 02:32:55;;;;;;;5.47;1.70;;;21.50;84.10;;;;;;5148413;27;45236;-74
2022/08/22 02:35:29;;;;;;;3.85;1.45;;;21.40;84.10;;;;;;5149205;27;45408;-74
2022/08/22 02:38:13;;;;;;;3.83;1.40;;;21.40;84.60;;;;;;5141074;27;45477;-72
2022/08/22 02:40:46;;;;;;;1.90;1.30;;;21.40;84.90;;;;;;5142874;27;47407;-74
2022/08/22 02:43:18;;;;;;;4.10;1.63;;;21.40;84.70;;;;;;5144255;27;45402;-75
2022/08/22 02:45:52;;;;;;;4.13;1.50;;;21.40;84.70;;;;;;5150179;27;45533;-75
2022/08/22 02:48:32;;;;;;;4.80;1.45;;;21.40;84.70;;;;;;5154795;27;45484;-74
2022/08/22 02:51:03;;;;;;;3.72;1.50;;;21.40;84.50;;;;;;5143181;27;48057;-74
2022/08/22 02:53:37;;;;;;;4.20;1.58;;;21.50;84.60;;;;;;5132777;27;45603;-74
2022/08/22 02:56:10;;;;;;;3.55;1.17;;;21.50;85.50;;;;;;5142366;27;45516;-74
2022/08/22 02:58:47;;;;;;;3.63;1.70;;;21.50;84.10;;;;;;5143522;27;45290;-74
2022/08/22 03:01:22;;;;;;;4.10;1.27;;;21.50;84.00;;;;;;5145727;27;45355;-74
2022/08/22 03:03:50;;;;;;;5.05;1.58;;;21.50;84.10;;;;;;5145125;27;45951;-74
2022/08/22 03:06:37;;;;;;;5.25;1.90;;;21.60;84.10;;;;;;5151023;27;45436;-74
2022/08/22 03:09:23;;;;;;;6.53;1.75;;;21.60;84.00;;;;;;5153136;27;45344;-74
2022/08/22 03:12:00;;;;;;;8.50;1.60;;;21.60;84.40;;;;;;5143476;27;47267;-74
2022/08/22 03:14:31;;;;;;;4.20;1.25;;;21.60;84.70;;;;;;5132755;27;45386;-74
2022/08/22 03:17:05;;;;;;;5.43;1.63;;;21.60;85.00;;;;;;5133495;27;45491;-74
2022/08/22 03:19:48;;;;;;;5.22;1.75;;;21.60;84.20;;;;;;5149976;27;45493;-74
2022/08/22 03:22:19;;;;;;;6.22;2.03;;;21.50;84.40;;;;;;5137299;27;46531;-74
2022/08/22 03:24:54;;;;;;;5.80;2.15;;;21.40;85.10;;;;;;5152140;27;45391;-74
2022/08/22 03:27:25;;;;;;;4.70;2.03;;;21.40;84.90;;;;;;5152788;27;45448;-74
2022/08/22 03:29:56;;;;;;;5.10;2.05;;;21.40;85.00;;;;;;5152068;27;45379;-74
2022/08/22 03:32:24;;;;;;;5.75;1.88;;;21.40;84.30;;;;;;5144759;27;47085;-73
2022/08/22 03:35:00;;;;;;;7.68;1.75;;;21.40;84.40;;;;;;5158864;27;45441;-74
2022/08/22 03:37:38;;;;;;;6.15;2.10;;;21.50;84.90;;;;;;5127561;27;45371;-74
2022/08/22 03:40:20;;;;;;;5.15;2.00;;;21.40;85.20;;;;;;5150839;27;45471;-74
2022/08/22 03:43:27;;;;;;;6.03;2.05;;;21.40;86.20;;;;;;5133348;27;47781;-74
2022/08/22 03:46:22;;;;;;;8.13;2.20;;;21.50;84.90;;;;;;5075551;27;45428;-74
2022/08/22 03:49:31;;;;;;;4.00;2.00;;;21.50;85.80;;;;;;5074024;27;45453;-74
2022/08/22 03:52:14;;;;;;;6.20;2.08;;;21.60;85.20;;;;;;5143042;27;45463;-74
2022/08/22 03:55:11;;;;;;;4.88;1.83;;;21.60;86.10;;;;;;5139268;27;48308;-74
2022/08/22 03:58:20;;;;;;;6.55;1.90;;;21.60;85.00;;;;;;5147053;27;45456;-74
2022/08/22 04:01:18;;;;;;;6.15;2.05;;;21.60;85.20;;;;;;5147745;27;45274;-73
2022/08/22 04:04:14;;;;;;;13.35;2.40;;;21.60;84.80;;;;;;5145437;27;45456;-74
2022/08/22 04:07:10;;;;;;;5.95;2.03;;;21.60;85.10;;;;;;5154302;27;45536;-74
2022/08/22 04:10:19;;;;;;;3.40;2.03;;;21.50;85.00;;;;;;5125002;27;45314;-74
2022/08/22 04:13:15;;;;;;;8.40;2.38;;;21.50;85.50;;;;;;5097061;27;45327;-74
2022/08/22 04:16:14;;;;;;;6.68;2.33;;;21.40;85.20;;;;;;5146409;27;45397;-74
2022/08/22 04:19:11;;;;;;;5.35;1.83;;;21.40;85.00;;;;;;5139148;27;47121;-74
2022/08/22 04:21:51;;;;;;;4.22;1.83;;;21.40;85.00;;;;;;5148116;27;45464;-75
2022/08/22 04:24:37;;;;;;;7.35;1.95;;;21.30;85.20;;;;;;5154352;27;45368;-73
2022/08/22 04:27:14;;;;;;;6.18;2.78;;;21.20;86.70;;;;;;5142114;27;45439;-74
2022/08/22 04:29:47;;;;;;;9.07;2.30;;;21.20;86.50;;;;;;5151435;27;47118;-74
2022/08/22 04:32:19;;;;;;;6.57;1.90;;;21.10;86.50;;;;;;5150511;27;45488;-74
2022/08/22 04:34:51;;;;;;;5.57;1.77;;;21.20;86.10;;;;;;5163031;27;45597;-74
2022/08/22 04:37:24;;;;;;;5.75;1.63;;;21.20;87.50;;;;;;5142485;27;45717;-74
2022/08/22 04:39:55;;;;;;;8.05;2.15;;;21.30;86.30;;;;;;5144064;27;45300;-74
2022/08/22 04:42:29;;;;;;;3.80;1.95;;;21.30;85.90;;;;;;5151125;27;45322;-74
2022/08/22 04:45:03;;;;;;;4.45;1.83;;;21.20;86.50;;;;;;5148942;27;45404;-74
2022/08/22 04:47:37;;;;;;;4.32;1.67;;;21.30;86.80;;;;;;5134768;27;45485;-74
2022/08/22 04:50:09;;;;;;;5.30;1.90;;;21.30;86.40;;;;;;5141040;27;45459;-74
2022/08/22 04:52:53;;;;;;;4.25;1.60;;;21.40;86.40;;;;;;5150259;27;46297;-74
2022/08/22 04:55:31;;;;;;;4.80;2.10;;;21.50;86.10;;;;;;5161746;27;45627;-73
2022/08/22 04:58:10;;;;;;;3.20;1.58;;;21.50;86.30;;;;;;5142807;27;45214;-74
2022/08/22 05:00:42;;;;;;;3.38;1.85;;;21.50;85.50;;;;;;5146262;27;47669;-74
2022/08/22 05:03:15;;;;;;;5.03;1.95;;;21.50;86.20;;;;;;5148700;27;45606;-74
2022/08/22 05:05:44;;;;;;;3.88;2.10;;;21.50;86.10;;;;;;5150202;27;45321;-74
2022/08/22 05:08:16;;;;;;;6.10;2.03;;;21.50;85.90;;;;;;5140742;27;45414;-75
2022/08/22 05:10:46;;;;;;;4.78;1.80;;;21.50;85.70;;;;;;5155480;27;46309;-74
2022/08/22 05:13:19;;;;;;;9.13;1.85;;;21.50;85.60;;;;;;5147814;27;45388;-74
2022/08/22 05:15:48;;;;;;;8.60;2.22;;;21.40;86.10;;;;;;5130268;27;45382;-74
2022/08/22 05:18:20;;;;;;;4.20;1.90;;;21.40;86.20;;;;;;5151219;27;45245;-74
2022/08/22 05:20:51;;;;;;;5.35;2.00;;;21.40;86.50;;;;;;5142755;27;46555;-74
2022/08/22 05:23:21;;;;;;;4.20;1.80;;;21.40;86.70;;;;;;5157791;27;45471;-74
2022/08/22 05:25:53;;;;;;;4.60;1.80;;;21.30;86.80;;;;;;5155483;27;45363;-74
2022/08/22 05:28:30;;;;;;;10.82;2.45;;;21.30;87.90;;;;;;5151797;27;45405;-74
2022/08/22 05:30:58;;;;;;;5.25;1.90;;;21.20;88.70;;;;;;5137563;27;47726;-73
2022/08/22 05:33:30;;;;;;;6.63;2.05;;;21.30;87.30;;;;;;5145353;27;45346;-74
2022/08/22 05:36:01;;;;;;;5.43;1.98;;;21.20;87.80;;;;;;5164560;27;45339;-74
2022/08/22 05:38:31;;;;;;;9.27;2.40;;;21.20;88.00;;;;;;5146129;27;45698;-74
2022/08/22 05:41:04;;;;;;;7.80;2.80;;;21.10;87.90;;;;;;5142421;27;46599;-74
2022/08/22 05:43:36;;;;;;;7.03;2.33;;;20.80;89.80;;;;;;5134366;27;45573;-73
2022/08/22 05:46:08;;;;;;;5.25;2.40;;;20.40;91.10;;;;;;5142123;27;45330;-73
2022/08/22 05:48:41;;;;;;;5.00;2.05;;;20.30;92.50;;;;;;5141403;27;45538;-73
2022/08/22 05:51:17;;;;;;;8.80;2.45;;;20.30;93.00;;;;;;5140289;27;49267;-74
2022/08/22 05:53:47;;;;;;;9.88;2.70;;;20.20;93.00;;;;;;5125276;27;45215;-74
2022/08/22 05:56:21;;;;;;;4.90;2.60;;;20.20;92.30;;;;;;5138128;27;45501;-74
2022/08/22 05:58:52;;;;;;;9.32;2.38;;;20.20;92.90;;;;;;5139417;27;45395;-75
2022/08/22 06:01:27;;;;;;;6.53;2.75;;;20.50;92.60;;;;;;5140764;27;48048;-73
2022/08/22 06:04:03;;;;;;;8.10;2.90;;;20.50;92.20;;;;;;5140257;27;45558;-74
2022/08/22 06:06:34;;;;;;;8.95;2.70;;;20.10;93.40;;;;;;5147199;27;45360;-73
2022/08/22 06:09:05;;;;;;;15.55;3.00;;;19.90;94.00;;;;;;5151260;27;45305;-74
2022/08/22 06:11:40;;;;;;;7.63;3.10;;;19.90;94.20;;;;;;5153784;27;48182;-74
2022/08/22 06:14:19;;;;;;;8.77;3.20;;;19.80;94.70;;;;;;5130540;27;45359;-74
2022/08/22 06:16:50;;;;;;;7.15;3.05;;;19.90;95.00;;;;;;5134854;27;45328;-74
2022/08/22 06:19:20;;;;;;;12.93;3.30;;;19.90;95.10;;;;;;5129502;27;45270;-73
2022/08/22 06:21:50;;;;;;;6.78;2.50;;;19.80;95.60;;;;;;5137764;27;46953;-74
2022/08/22 06:24:22;;;;;;;5.70;2.10;;;20.10;95.10;;;;;;5137608;27;45358;-73
2022/08/22 06:26:52;;;;;;;6.78;2.55;;;20.60;94.20;;;;;;5151820;27;45340;-73
2022/08/22 06:29:29;;;;;;;7.45;2.65;;;20.80;93.50;;;;;;5151449;27;45482;-73
2022/08/22 06:31:57;;;;;;;9.88;3.15;;;20.70;93.40;;;;;;5142673;27;45614;-74
2022/08/22 06:34:28;;;;;;;7.57;2.80;;;20.70;93.40;;;;;;5139234;27;45224;-73
2022/08/22 06:36:58;;;;;;;9.40;3.20;;;20.60;93.40;;;;;;5141557;27;45320;-73
2022/08/22 06:39:30;;;;;;;6.50;3.03;;;20.50;94.30;;;;;;5155484;27;45305;-73
2022/08/22 06:42:01;;;;;;;11.50;3.08;;;20.30;94.20;;;;;;5137170;27;46065;-74
2022/08/22 06:44:32;;;;;;;12.68;3.35;;;20.50;94.30;;;;;;5141534;27;45478;-73
2022/08/22 06:47:03;;;;;;;5.93;2.72;;;20.60;94.10;;;;;;5150803;27;45473;-73
2022/08/22 06:49:34;;;;;;;12.45;3.05;;;20.60;92.80;;;;;;5136587;27;45431;-73
2022/08/22 06:52:07;;;;;;;11.88;3.55;;;20.60;93.70;;;;;;5140050;27;45520;-73
2022/08/22 06:54:39;;;;;;;8.45;3.70;;;20.80;93.10;;;;;;5126943;27;45228;-73
2022/08/22 06:57:25;;;;;;;7.82;3.53;;;20.90;93.10;;;;;;5132730;27;45447;-74
2022/08/22 06:59:54;;;;;;;6.10;2.97;;;20.80;93.40;;;;;;5134732;27;45623;-72
2022/08/22 07:02:26;;;;;;;8.18;3.05;;;20.80;93.10;;;;;;5136235;27;46940;-73
2022/08/22 07:04:54;;;;;;;7.40;3.40;;;20.90;93.20;;;;;;5135011;27;45462;-72
2022/08/22 07:07:26;;;;;;;7.93;3.08;;;20.90;92.70;;;;;;5126333;27;45350;-72
2022/08/22 07:09:56;;;;;;;7.25;2.85;;;21.10;92.40;;;;;;5150300;27;45452;-73
2022/08/22 07:12:27;;;;;;;9.75;2.72;;;21.30;92.10;;;;;;5154039;27;45311;-73
2022/08/22 07:14:59;;;;;;;11.27;2.97;;;21.40;91.50;;;;;;5128212;27;45278;-73
2022/08/22 07:17:29;;;;;;;7.97;3.22;;;21.50;91.90;;;;;;5136954;27;45346;-73
2022/08/22 07:19:59;;;;;;;7.95;2.83;;;21.70;90.30;;;;;;5149251;27;45317;-74
2022/08/22 07:22:29;;;;;;;9.50;2.53;;;21.90;90.10;;;;;;5149044;27;46246;-73
2022/08/22 07:25:01;;;;;;;5.85;2.78;;;21.90;90.40;;;;;;5147086;27;45484;-73
2022/08/22 07:27:42;;;;;;;7.18;2.63;;;22.00;90.10;;;;;;5135023;27;45518;-73
2022/08/22 07:30:12;;;;;;;6.63;2.63;;;22.00;90.10;;;;;;5145286;27;45576;-74
2022/08/22 07:32:49;;;;;;;5.63;2.25;;;22.10;90.10;;;;;;5156613;27;45348;-74
2022/08/22 07:35:21;;;;;;;11.85;2.53;;;22.10;90.00;;;;;;5143749;27;45357;-73
2022/08/22 07:37:55;;;;;;;11.50;2.47;;;22.20;89.30;;;;;;5137550;27;45288;-73
2022/08/22 07:40:27;;;;;;;8.80;2.58;;;22.20;90.00;;;;;;5155744;27;45271;-73
2022/08/22 07:43:00;;;;;;;5.70;2.15;;;22.20;90.60;;;;;;5141746;27;48395;-73
2022/08/22 07:45:35;;;;;;;10.85;3.03;;;22.20;90.00;;;;;;5152063;27;45203;-74
2022/08/22 07:48:12;;;;;;;5.85;2.63;;;22.30;90.20;;;;;;5150152;27;45452;-73
2022/08/22 07:50:57;;;;;;;6.78;2.75;;;22.30;90.50;;;;;;5135767;27;45521;-74
2022/08/22 07:53:30;;;;;;;7.63;2.25;;;22.30;89.80;;;;;;5152016;27;47327;-73
2022/08/22 07:55:58;;;;;;;8.93;2.47;;;22.30;90.10;;;;;;5141751;27;45196;-74
2022/08/22 07:58:27;;;;;;;5.07;2.17;;;22.30;88.90;;;;;;5132521;27;45363;-74
2022/08/22 08:00:55;;;;;;;9.13;2.92;;;22.40;88.80;;;;;;5146432;27;45532;-74
2022/08/22 08:03:25;;;;;;;6.85;2.28;;;22.40;90.10;;;;;;5141150;27;46290;-74
2022/08/22 08:05:54;;;;;;;6.88;2.55;;;22.40;88.90;;;;;;5126635;27;45395;-74
2022/08/22 08:08:25;;;;;;;9.07;2.60;;;22.40;88.80;;;;;;5139252;27;45297;-74
2022/08/22 08:10:56;;;;;;;7.45;2.70;;;22.50;89.10;;;;;;5135758;27;45287;-74
2022/08/22 08:13:40;;;;;;;11.07;2.88;;;22.50;90.00;;;;;;5143494;27;47177;-73
2022/08/22 08:16:11;;;;;;;7.03;2.60;;;22.60;87.80;;;;;;5149781;27;45296;-74
2022/08/22 08:18:39;;;;;;;9.63;2.63;;;22.50;88.70;;;;;;5138296;27;45504;-74
2022/08/22 08:21:24;;;;;;;5.65;2.00;;;22.60;88.70;;;;;;5150907;27;45524;-74
2022/08/22 08:23:52;;;;;;;3.15;1.60;;;22.60;88.00;;;;;;5142511;27;47199;-73
2022/08/22 08:26:24;;;;;;;7.30;2.70;;;22.80;87.30;;;;;;5139363;27;45523;-73
2022/08/22 08:28:53;;;;;;;6.97;2.78;;;22.80;88.70;;;;;;5150018;27;45230;-73
2022/08/22 08:31:27;;;;;;;9.70;2.35;;;22.80;85.20;;;;;;5152466;27;45455;-73
2022/08/22 08:33:59;;;;;;;7.38;2.15;;;22.90;84.00;;;;;;5145083;27;45334;-73
2022/08/22 08:36:41;;;;;;;5.43;2.00;;;22.90;83.20;;;;;;5130161;27;45441;-74
2022/08/22 08:39:17;;;;;;;10.43;2.00;;;22.90;85.30;;;;;;5150259;27;45370;-74
2022/08/22 08:42:24;;;;;;;7.28;1.73;;;23.00;79.60;;;;;;5149262;27;45288;-74
2022/08/22 08:45:23;;;;;;;9.15;2.35;;;23.00;83.30;;;;;;5145615;27;45356;-73
2022/08/22 08:48:14;;;;;;;7.30;1.77;;;23.00;80.50;;;;;;5156744;27;45545;-73
2022/08/22 08:50:54;;;;;;;3.83;1.35;;;22.90;77.90;;;;;;5127348;27;45339;-73
2022/08/22 08:53:49;;;;;;;5.25;1.50;;;22.90;78.40;;;;;;5153473;27;45449;-74
2022/08/22 08:56:25;;;;;;;6.55;1.60;;;22.90;78.50;;;;;;5135760;27;45432;-74
2022/08/22 08:59:02;;;;;;;7.88;1.45;;;22.90;76.00;;;;;;5129773;27;45487;-73
2022/08/22 09:02:01;;;;;;;6.68;1.90;;;23.00;78.30;;;;;;5139795;27;45432;-74
2022/08/22 09:05:01;;;;;;;9.50;2.00;;;23.00;77.00;;;;;;5145737;27;45299;-74
2022/08/22 09:07:56;;;;;;;9.95;2.15;;;23.10;82.90;;;;;;5131032;27;46849;-73
2022/08/22 09:10:42;;;;;;;9.55;1.80;;;23.10;78.30;;;;;;5146951;27;45278;-73
2022/08/22 09:13:31;;;;;;;6.45;1.42;;;23.20;75.30;;;;;;5145775;27;45391;-73
2022/08/22 09:16:17;;;;;;;3.25;1.45;;;23.20;71.30;;;;;;5147264;27;45476;-73
2022/08/22 09:19:17;;;;;;;4.07;1.70;;;23.30;75.70;;;;;;5153836;27;47312;-73
2022/08/22 09:22:11;;;;;;;7.00;1.65;;;23.20;73.50;;;;;;5098192;27;46065;-73
2022/08/22 09:25:01;;;;;;;10.02;1.65;;;23.20;71.80;;;;;;5138380;27;45408;-74
2022/08/22 09:27:35;;;;;;;5.10;1.52;;;23.30;75.20;;;;;;5141405;27;45193;-73
2022/08/22 09:30:08;;;;;;;21.38;3.33;;;23.20;78.90;;;;;;5129695;27;45541;-73
2022/08/22 09:32:45;;;;;;;4.93;1.80;;;23.20;72.20;;;;;;5151454;27;45377;-73
2022/08/22 09:35:23;;;;;;;6.30;1.70;;;23.30;80.30;;;;;;5138270;27;45331;-73
2022/08/22 09:38:21;;;;;;;5.82;1.92;;;23.20;83.30;;;;;;5138037;27;45418;-74
2022/08/22 09:40:53;;;;;;;3.72;1.30;;;23.10;77.70;;;;;;5134577;27;46364;-74
2022/08/22 09:43:28;;;;;;;9.20;1.73;;;23.40;69.50;;;;;;5134027;27;45408;-73
2022/08/22 09:46:05;;;;;;;3.03;1.38;;;23.30;75.10;;;;;;5134976;27;45569;-73
2022/08/22 09:48:38;;;;;;;5.07;1.38;;;23.30;68.90;;;;;;5144301;27;45471;-74
2022/08/22 09:51:15;;;;;;;10.55;1.95;;;23.40;69.20;;;;;;5149568;27;47917;-74
2022/08/22 09:54:01;;;;;;;6.60;1.63;;;23.50;75.60;;;;;;5156766;27;45989;-73
2022/08/22 09:56:37;;;;;;;9.60;2.00;;;23.30;76.60;;;;;;5147457;27;45349;-74
2022/08/22 09:59:11;;;;;;;4.38;1.38;;;23.20;69.30;;;;;;5154279;27;45316;-74
2022/08/22 10:01:47;;;;;;;4.68;1.30;;;23.50;74.80;;;;;;5144923;27;45472;-73
2022/08/22 10:04:38;;;;;;;4.70;1.48;;;23.40;77.10;;;;;;5158491;27;46097;-73
2022/08/22 10:07:19;;;;;;;3.92;1.40;;;23.50;68.00;;;;;;5159944;27;45424;-73
2022/08/22 10:09:56;;;;;;;6.50;1.60;;;23.40;78.90;;;;;;5132590;27;45617;-73
2022/08/22 10:12:30;;;;;;;6.85;1.60;;;23.20;77.80;;;;;;5140517;27;45495;-73
2022/08/22 10:15:14;;;;;;;3.70;1.50;;;23.20;75.90;;;;;;5132711;27;45772;-74
2022/08/22 10:17:52;;;;;;;4.68;1.55;;;23.20;76.30;;;;;;5147648;27;45357;-73
2022/08/22 10:20:23;;;;;;;6.07;1.50;;;23.20;74.80;;;;;;5141149;27;45408;-74
2022/08/22 10:22:59;;;;;;;4.05;1.58;;;23.30;77.20;;;;;;5149291;27;47421;-74
2022/08/22 10:25:34;;;;;;;8.95;1.70;;;23.20;73.70;;;;;;5150693;27;45244;-74
2022/08/22 10:28:18;;;;;;;7.75;1.38;;;23.40;69.40;;;;;;5136279;27;45443;-75
2022/08/22 10:31:01;;;;;;;6.65;1.50;;;23.50;68.30;;;;;;5132222;27;45556;-74
2022/08/22 10:33:33;;;;;;;4.75;1.33;;;23.60;67.50;;;;;;5135996;27;47942;-73
2022/08/22 10:36:06;;;;;;;3.40;1.30;;;23.70;69.60;;;;;;5142192;27;45489;-74
2022/08/22 10:38:38;;;;;;;2.42;1.25;;;23.60;73.30;;;;;;5148008;27;45391;-73
2022/08/22 10:41:08;;;;;;;6.70;1.63;;;23.50;73.90;;;;;;5149336;27;45451;-73
2022/08/22 10:43:43;;;;;;;8.43;1.63;;;23.30;72.10;;;;;;5146282;27;46277;-73
2022/08/22 10:46:15;;;;;;;7.68;1.80;;;23.50;70.30;;;;;;5155336;27;45989;-74
2022/08/22 10:48:51;;;;;;;3.80;1.33;;;23.70;66.80;;;;;;5145537;27;45267;-73
2022/08/22 10:51:26;;;;;;;5.75;1.52;;;23.80;67.40;;;;;;5139226;27;45386;-73
2022/08/22 10:54:27;;;;;;;5.43;1.77;;;23.50;80.50;;;;;;5135965;27;45412;-74
2022/08/22 10:57:04;;;;;;;4.47;1.65;;;23.50;67.00;;;;;;5134981;27;45441;-74
2022/08/22 10:59:39;;;;;;;5.40;1.48;;;23.70;69.90;;;;;;5136925;27;45427;-74
2022/08/22 11:02:33;;;;;;;3.90;1.38;;;23.80;67.60;;;;;;5138989;27;45610;-74
2022/08/22 11:05:18;;;;;;;4.93;1.42;;;23.80;67.00;;;;;;5138937;27;46531;-73
2022/08/22 11:07:49;;;;;;;3.78;1.38;;;23.70;77.00;;;;;;5127016;27;45315;-73
2022/08/22 11:10:25;;;;;;;4.72;1.58;;;23.50;80.10;;;;;;5142870;27;45349;-73
2022/08/22 11:13:10;;;;;;;6.32;1.45;;;23.40;72.40;;;;;;5145724;27;45648;-73
2022/08/22 11:16:00;;;;;;;8.75;2.08;;;23.30;70.70;;;;;;5138477;27;45349;-73
2022/08/22 11:18:39;;;;;;;5.55;1.33;;;23.40;69.70;;;;;;5136048;27;45294;-73
2022/08/22 11:21:10;;;;;;;5.32;1.52;;;23.50;72.80;;;;;;5137262;27;45370;-72
2022/08/22 11:23:44;;;;;;;4.50;1.40;;;23.60;71.30;;;;;;5135431;27;45341;-73
2022/08/22 11:26:30;;;;;;;6.45;1.50;;;23.50;74.70;;;;;;5138438;27;47106;-72
2022/08/22 11:29:32;;;;;;;3.50;1.38;;;23.50;70.40;;;;;;5129418;27;45346;-73
2022/08/22 11:32:06;;;;;;;5.70;1.33;;;23.50;75.40;;;;;;5136047;27;45513;-73
2022/08/22 11:34:51;;;;;;;3.50;1.20;;;23.50;75.40;;;;;;5129157;27;45564;-73
2022/08/22 11:37:32;;;;;;;5.20;1.50;;;23.50;75.60;;;;;;5136154;27;47024;-73
2022/08/22 11:40:12;;;;;;;8.00;1.45;;;23.40;72.80;;;;;;5148967;27;45369;-73
2022/08/22 11:42:46;;;;;;;8.30;1.90;;;23.60;69.40;;;;;;5144538;27;45375;-74
2022/08/22 11:45:19;;;;;;;5.80;1.58;;;23.60;69.40;;;;;;5130794;27;45506;-73
2022/08/22 11:47:54;;;;;;;3.63;1.60;;;23.60;69.20;;;;;;5134881;27;46445;-73
2022/08/22 11:50:34;;;;;;;5.43;1.65;;;23.60;72.10;;;;;;5138481;27;45405;-72
2022/08/22 11:53:17;;;;;;;3.35;1.48;;;23.70;67.70;;;;;;5146435;27;45538;-72
2022/08/22 11:55:53;;;;;;;8.73;1.60;;;23.70;67.70;;;;;;5135125;27;45436;-73
2022/08/22 11:58:29;;;;;;;4.13;1.50;;;23.70;68.30;;;;;;5135205;27;47832;-74
2022/08/22 12:01:01;;;;;;;3.42;1.13;;;23.70;71.50;;;;;;5140873;27;45330;-73
2022/08/22 12:03:42;;;;;;;2.97;1.20;;;23.70;72.40;;;;;;5138195;27;45319;-74
2022/08/22 12:06:35;;;;;;;2.92;1.30;;;23.70;76.30;;;;;;5136756;27;45624;-73
2022/08/22 12:09:38;;;;;;;3.20;1.30;;;23.70;71.30;;;;;;5137230;27;48151;-73
2022/08/22 12:12:23;;;;;;;8.85;1.35;;;23.70;77.60;;;;;;5152644;27;45414;-73
2022/08/22 12:14:57;;;;;;;5.63;1.27;;;23.70;67.20;;;;;;5139840;27;45362;-73
2022/08/22 12:17:57;;;;;;;2.35;1.15;;;23.80;70.10;;;;;;5131114;27;45478;-74
2022/08/22 12:20:48;;;;;;;4.45;0.98;;;23.80;66.40;;;;;;5106122;27;45745;-73
2022/08/22 12:23:32;;;;;;;5.47;1.30;;;23.90;67.50;;;;;;5124630;27;45365;-74
2022/08/22 12:26:12;;;;;;;7.60;1.60;;;23.90;65.20;;;;;;5155750;27;45370;-73
2022/08/22 12:28:46;;;;;;;5.78;1.63;;;23.90;66.90;;;;;;5148161;27;45580;-73
2022/08/22 12:31:20;;;;;;;3.47;1.27;;;23.90;68.60;;;;;;5140379;27;46289;-73
2022/08/22 12:34:02;;;;;;;4.53;1.50;;;23.90;66.70;;;;;;5144117;27;45449;-74
2022/08/22 12:36:49;;;;;;;2.58;1.50;;;23.90;70.10;;;;;;5138858;27;45506;-73
2022/08/22 12:39:43;;;;;;;4.53;1.63;;;23.90;65.30;;;;;;5150939;27;45612;-73
2022/08/22 12:42:37;;;;;;;6.47;1.13;;;23.90;65.50;;;;;;5144417;27;46302;-73
2022/08/22 12:45:32;;;;;;;4.65;1.60;;;23.90;66.40;;;;;;5135824;27;45431;-73
2022/08/22 12:48:11;;;;;;;6.25;1.70;;;23.80;74.00;;;;;;5138573;27;45476;-73
2022/08/22 12:50:47;;;;;;;6.90;1.42;;;23.60;71.40;;;;;;5142798;27;45301;-73
2022/08/22 12:53:50;;;;;;;4.18;1.20;;;23.70;67.60;;;;;;5151612;27;47959;-74
2022/08/22 12:56:32;;;;;;;2.05;1.10;;;23.70;67.50;;;;;;5139956;27;45376;-73
2022/08/22 12:59:21;;;;;;;3.92;1.58;;;23.70;70.70;;;;;;5132597;27;45439;-73
2022/08/22 13:01:51;;;;;;;8.00;1.50;;;23.80;67.90;;;;;;5137804;27;45591;-73
2022/08/22 13:04:22;;;;;;;4.15;1.45;;;23.80;68.80;;;;;;5134744;27;45504;-73
2022/08/22 13:06:55;;;;;;;4.18;1.27;;;23.60;79.00;;;;;;5128083;27;45363;-73
2022/08/22 13:09:28;;;;;;;3.25;1.60;;;23.50;73.60;;;;;;5151597;27;45341;-73
2022/08/22 13:12:02;;;;;;;2.20;1.38;;;23.50;80.30;;;;;;5140805;27;45508;-73
2022/08/22 13:14:32;;;;;;;3.13;1.02;;;23.50;77.20;;;;;;5141329;27;47546;-73
2022/08/22 13:17:04;;;;;;;6.80;1.10;;;23.50;74.60;;;;;;5138747;27;45278;-73
2022/08/22 13:19:35;;;;;;;4.68;1.27;;;23.60;73.20;;;;;;5135714;27;45497;-73
2022/08/22 13:22:11;;;;;;;2.92;1.20;;;23.70;73.00;;;;;;5134570;27;45561;-73
2022/08/22 13:24:44;;;;;;;3.90;1.30;;;23.80;72.20;;;;;;5137576;27;45308;-73
2022/08/22 13:27:18;;;;;;;4.28;1.10;;;23.80;69.90;;;;;;5141328;27;45499;-73
2022/08/22 13:29:48;;;;;;;6.90;2.20;;;23.70;77.20;;;;;;5144670;27;45326;-73
2022/08/22 13:32:22;;;;;;;5.82;2.28;;;23.60;77.30;;;;;;5157855;27;45504;-73
2022/08/22 13:34:52;;;;;;;6.28;2.10;;;23.50;77.50;;;;;;5142320;27;47313;-73
2022/08/22 13:37:23;;;;;;;7.13;2.10;;;23.50;78.10;;;;;;5157344;27;45355;-73
2022/08/22 13:39:53;;;;;;;5.88;2.00;;;23.50;71.40;;;;;;5156738;27;45275;-73
2022/08/22 13:42:25;;;;;;;6.28;1.73;;;23.60;69.70;;;;;;5146047;27;45456;-73
2022/08/22 13:44:55;;;;;;;4.88;1.52;;;23.70;70.70;;;;;;5129300;27;47366;-73